M I D A S
Marine Information and Data Acquisition System
Tripno 959 of the Zeeleeuw from 2005-09-21 06:41:11 to 2005-09-21 13:26:59
Back to CruiseResearch ActivitiesStationsMapUnderway DataData graphs

EquipmentUnitsComment
TimeDGPSUTC
LatitudeDGPSDM.mWGS84
LongitudeDGPSDM.mWGS84
HeadingGyrodeg 
SOGDGPSknotsSpeed over ground
COGDGPSdegCourse over ground
DepthEcho soundermeters200 kHz
Missing or incorrect values are displayed as -999
Navigation data collected by the RV Zeeleeuw from 2005-09-21 06:38:15 to 2005-09-21 13:37:02
Time Latitude Longitude Heading SOG COG Depth
2005-09-21 06:39:20 51°13.625 2°56.018 114.1 3.9 293 -999
2005-09-21 06:40:20 51°13.655 2°55.912 121.1 4.7 298 -999
2005-09-21 06:41:21 51°13.691 2°55.808 115.4 4.2 296 -999
2005-09-21 06:42:20 51°13.707 2°55.74 88.5 2.9 287 12.4
2005-09-21 06:43:19 51°13.718 2°55.749 19.5 1 208 12.4
2005-09-21 06:44:20 51°13.726 2°55.734 345.9 2.4 336 -999
2005-09-21 06:45:20 51°13.787 2°55.678 334.6 5.3 329 8.5
2005-09-21 06:46:20 51°13.878 2°55.6 338.2 6.6 334 9.6
2005-09-21 06:47:20 51°13.979 2°55.52 337.8 6.9 333 9.5
2005-09-21 06:48:20 51°14.085 2°55.442 342.6 6.9 338 9.7
2005-09-21 06:49:20 51°14.189 2°55.366 336.9 6.9 331 10
2005-09-21 06:50:20 51°14.286 2°55.24 320.4 8.7 314 10
2005-09-21 06:51:20 51°14.386 2°55.038 312.7 10 307 10.4
2005-09-21 06:52:20 51°14.498 2°54.816 330.9 12.2 320 9.4
2005-09-21 06:53:20 51°14.677 2°54.623 338.1 13.1 327 8.9
2005-09-21 06:54:20 51°14.843 2°54.397 327.3 13.3 317 8.6
2005-09-21 06:55:20 51°15.017 2°54.177 331.6 13.1 321 7.8
2005-09-21 06:56:20 51°15.189 2°53.966 331.3 13.3 319 8.3
2005-09-21 06:57:20 51°15.37 2°53.759 336.8 13.4 327 9.2
2005-09-21 06:58:20 51°15.552 2°53.553 334.4 13.4 324 9.9
2005-09-21 06:59:20 51°15.733 2°53.351 339.5 13.1 329 10.4
2005-09-21 07:00:20 51°15.922 2°53.175 339.7 13.2 329 10.9
2005-09-21 07:01:20 51°16.113 2°53.011 346.2 13 336 11.2
2005-09-21 07:02:20 51°16.31 2°52.864 345.1 13.3 335 11.4
2005-09-21 07:03:20 51°16.518 2°52.727 347.5 13.4 338 10.9
2005-09-21 07:04:20 51°16.724 2°52.601 349.6 13.3 340 9.4
2005-09-21 07:05:20 51°16.931 2°52.485 350 13.3 341 9
2005-09-21 07:06:20 51°17.14 2°52.369 348.4 13.4 339 9.2
2005-09-21 07:07:20 51°17.352 2°52.247 349.8 13.3 340 9.6
2005-09-21 07:08:20 51°17.537 2°52.072 322 13.2 313 9.5
2005-09-21 07:09:20 51°17.619 2°51.735 296.1 13.8 290 9.3
2005-09-21 07:10:20 51°17.709 2°51.397 300.7 14 293 9
2005-09-21 07:11:20 51°17.812 2°51.061 303.4 14.2 295 9.9
2005-09-21 07:12:20 51°17.911 2°50.718 304 14.2 296 11.5
2005-09-21 07:13:20 51°18.011 2°50.377 303.3 14.2 295 12.3
2005-09-21 07:14:20 51°18.112 2°50.032 302.7 14.3 295 13.1
2005-09-21 07:15:20 51°18.213 2°49.694 303.3 14.2 295 12.7
2005-09-21 07:16:20 51°18.312 2°49.349 304.1 14.1 295 10.8
2005-09-21 07:17:20 51°18.413 2°49.009 304.2 14.2 296 9.6
2005-09-21 07:18:21 51°18.517 2°48.66 302.8 14.6 295 10.1
2005-09-21 07:19:20 51°18.614 2°48.311 300.2 14.6 293 11.7
2005-09-21 07:20:20 51°18.707 2°47.96 301.2 14.4 293 13.9
2005-09-21 07:21:20 51°18.801 2°47.612 302.9 14.2 294 15.8
2005-09-21 07:22:20 51°18.896 2°47.265 301.8 14.3 293 18.1
2005-09-21 07:23:20 51°18.992 2°46.916 302.4 14.4 294 19.9
2005-09-21 07:24:20 51°19.088 2°46.566 302.1 14.3 293 20.3
2005-09-21 07:25:20 51°19.188 2°46.22 302.8 14.3 295 19.7
2005-09-21 07:26:20 51°19.286 2°45.875 302.2 14.3 294 16.9
2005-09-21 07:27:20 51°19.385 2°45.528 303.2 14.4 295 12.8
2005-09-21 07:28:20 51°19.493 2°45.183 304.1 14.8 297 12.9
2005-09-21 07:29:20 51°19.601 2°44.831 303.5 14.6 296 20.5
2005-09-21 07:30:20 51°19.704 2°44.48 301.9 14.4 295 21.6
2005-09-21 07:31:20 51°19.804 2°44.137 302.3 14.4 295 22.6
2005-09-21 07:32:20 51°19.902 2°43.789 302 14.4 295 24.1
2005-09-21 07:33:20 51°20.002 2°43.442 302.4 14.5 295 25.6
2005-09-21 07:34:20 51°20.103 2°43.097 302.7 14.3 294 25.3
2005-09-21 07:35:20 51°20.198 2°42.746 299.9 14.5 293 23.9
2005-09-21 07:36:20 51°20.294 2°42.394 300.4 14.4 294 20.9
2005-09-21 07:37:21 51°20.394 2°42.036 300.6 14.5 295 16.8
2005-09-21 07:38:20 51°20.493 2°41.688 300.6 14.7 294 19.2
2005-09-21 07:39:20 51°20.594 2°41.334 300.2 14.5 295 23.3
2005-09-21 07:40:20 51°20.685 2°40.979 293.1 14.4 284 25
2005-09-21 07:41:20 51°20.706 2°40.6 277.3 14.5 273 25.6
2005-09-21 07:42:20 51°20.665 2°40.221 259.1 14.5 256 25.7
2005-09-21 07:43:20 51°20.607 2°39.85 260.1 14.5 256 24.7
2005-09-21 07:44:20 51°20.567 2°39.465 266.3 14.6 261 24
2005-09-21 07:45:20 51°20.548 2°39.085 270.6 14.5 267 23.1
2005-09-21 07:46:20 51°20.559 2°38.699 281.6 14.6 278 23.1
2005-09-21 07:47:20 51°20.589 2°38.314 285.2 14.6 280 22.1
2005-09-21 07:48:20 51°20.632 2°37.931 285.9 14.7 280 21.8
2005-09-21 07:49:20 51°20.676 2°37.547 285.3 14.7 280 21.4
2005-09-21 07:50:20 51°20.717 2°37.159 285.6 14.7 280 22.3
2005-09-21 07:51:20 51°20.759 2°36.776 285.5 14.7 279 20.7
2005-09-21 07:52:20 51°20.801 2°36.386 285.5 14.8 279 21.5
2005-09-21 07:53:21 51°20.842 2°35.993 285.6 14.9 279 21.5
2005-09-21 07:54:20 51°20.87 2°35.603 282.8 14.9 277 27.4
2005-09-21 07:55:20 51°20.899 2°35.213 282.3 14.9 278 28.8
2005-09-21 07:56:20 51°21.013 2°34.878 318.2 14.2 309 30.3
2005-09-21 07:57:20 51°21.176 2°34.608 324.5 14.1 314 29.4
2005-09-21 07:58:20 51°21.345 2°34.345 328.3 14.1 320 28.8
2005-09-21 07:59:21 51°21.537 2°34.129 340.2 13.9 327 29.6
2005-09-21 08:00:20 51°21.743 2°33.994 352.2 13.5 341 28.4
2005-09-21 08:01:20 51°21.956 2°33.875 351.7 13.6 341 23.4
2005-09-21 08:02:21 51°22.164 2°33.708 339 13.9 329 23.1
2005-09-21 08:03:20 51°22.326 2°33.461 314 14.1 303 29.3
2005-09-21 08:04:21 51°22.456 2°33.137 312 14.3 303 29.9
2005-09-21 08:05:20 51°22.585 2°32.819 311.4 14.4 303 29.4
2005-09-21 08:06:20 51°22.647 2°32.457 278.6 14.5 273 30.2
2005-09-21 08:07:20 51°22.645 2°32.06 274.9 14.9 269 29.9
2005-09-21 08:08:20 51°22.644 2°31.663 274.1 15.1 269 30.1
2005-09-21 08:09:20 51°22.641 2°31.262 274.4 15.1 269 29.5
2005-09-21 08:10:20 51°22.637 2°30.856 274.6 15.3 269 29.4
2005-09-21 08:11:20 51°22.635 2°30.452 275.9 15.2 269 28.5
2005-09-21 08:12:20 51°22.633 2°30.05 275 15.1 269 31.5
2005-09-21 08:13:20 51°22.628 2°29.645 274.8 15.1 268 32.1
2005-09-21 08:14:20 51°22.622 2°29.244 274.7 15.1 268 31.9
2005-09-21 08:15:20 51°22.614 2°28.844 274.9 15.2 268 32.1
2005-09-21 08:16:21 51°22.607 2°28.431 275.1 15.2 268 33.6
2005-09-21 08:17:20 51°22.601 2°28.034 275.4 15.2 269 32.1
2005-09-21 08:18:21 51°22.593 2°27.623 275.3 15.2 268 32.8
2005-09-21 08:19:20 51°22.587 2°27.226 275 15.2 268 32.9
2005-09-21 08:20:20 51°22.581 2°26.821 275.2 15.3 269 32.2
2005-09-21 08:21:20 51°22.576 2°26.415 275.5 15.3 269 31.5
2005-09-21 08:22:21 51°22.57 2°26.003 275.4 15.2 269 28.5
2005-09-21 08:23:20 51°22.568 2°25.6 275.4 15.3 270 19.2
2005-09-21 08:24:20 51°22.64 2°25.233 311.1 14.9 291 23.6
2005-09-21 08:25:20 51°22.833 2°25.139 17 12.3 7 30
2005-09-21 08:26:20 51°23.025 2°25.236 30.1 12.2 19 31.2
2005-09-21 08:27:21 51°23.219 2°25.347 29.8 12.2 19 31.8
2005-09-21 08:28:20 51°23.409 2°25.445 28.4 12.2 19 31.6
2005-09-21 08:29:20 51°23.603 2°25.544 26 12.3 16 32.4
2005-09-21 08:30:20 51°23.8 2°25.629 24.6 12.2 15 31.8
2005-09-21 08:31:20 51°23.993 2°25.714 25.1 12.2 16 31.8
2005-09-21 08:32:20 51°24.187 2°25.799 24.7 12.1 16 32
2005-09-21 08:33:20 51°24.381 2°25.875 20.6 12.1 10 31.9
2005-09-21 08:34:20 51°24.583 2°25.926 18.9 12.2 9 33.1
2005-09-21 08:35:20 51°24.78 2°25.974 18.7 12.2 9 33.6
2005-09-21 08:36:20 51°24.983 2°26.016 16.7 12.1 7 34.1
2005-09-21 08:37:20 51°25.18 2°26.052 16.9 12 7 32.8
2005-09-21 08:38:20 51°25.377 2°26.089 17.4 11.8 7 33
2005-09-21 08:39:20 51°25.573 2°26.125 17 11.8 6 33.7
2005-09-21 08:40:21 51°25.767 2°26.171 19.9 11.7 9 34.4
2005-09-21 08:41:20 51°25.955 2°26.222 21 11.6 11 31.6
2005-09-21 08:42:21 51°26.148 2°26.276 20.3 11.6 9 33.1
2005-09-21 08:43:21 51°26.337 2°26.326 20.4 11.5 9 30.8
2005-09-21 08:44:20 51°26.522 2°26.378 20.7 11.5 10 26.5
2005-09-21 08:45:20 51°26.713 2°26.429 20.5 11.6 9 22.1
2005-09-21 08:46:20 51°26.901 2°26.478 20.5 11.6 9 21.8
2005-09-21 08:47:20 51°27.092 2°26.526 20.9 11.6 9 22.5
2005-09-21 08:48:20 51°27.284 2°26.575 19.9 11.8 8 24.2
2005-09-21 08:49:20 51°27.477 2°26.626 19.9 11.8 8 27.6
2005-09-21 08:50:20 51°27.671 2°26.677 20.3 11.9 9 31.9
2005-09-21 08:51:20 51°27.865 2°26.73 20 11.8 10 32.6
2005-09-21 08:52:20 51°28.059 2°26.783 19.5 11.8 11 29.3
2005-09-21 08:53:20 51°28.253 2°26.846 20.3 11.8 12 34.1
2005-09-21 08:54:20 51°28.447 2°26.909 20.2 11.9 11 32
2005-09-21 08:55:20 51°28.643 2°26.924 1.4 12.2 350 33.6
2005-09-21 08:56:20 51°28.844 2°26.849 358.4 12.3 344 33.7
2005-09-21 08:57:20 51°28.995 2°26.613 311.7 13.4 294 33.5
2005-09-21 08:58:21 51°29.023 2°26.231 283.7 14.5 275 35.2
2005-09-21 08:59:20 51°29.054 2°25.854 290 14.3 280 30.3
2005-09-21 09:00:20 51°29.103 2°25.482 295.1 14.1 284 31.5
2005-09-21 09:01:20 51°29.159 2°25.121 295.6 14.1 283 27.4
2005-09-21 09:02:20 51°29.216 2°24.756 296 14.2 284 24.3
2005-09-21 09:03:20 51°29.279 2°24.393 298.3 14 287 27.7
2005-09-21 09:04:20 51°29.343 2°24.033 297.5 14.2 285 27.5
2005-09-21 09:05:19 51°29.417 2°23.679 306.5 13.7 298 38.2
2005-09-21 09:06:20 51°29.594 2°23.563 13.3 11.3 5 38.5
2005-09-21 09:07:20 51°29.758 2°23.705 39.8 11.2 33 38.6
2005-09-21 09:08:20 51°29.903 2°23.892 45.3 11.2 40 38.7
2005-09-21 09:09:20 51°30.045 2°24.083 45.3 11.1 40 39.5
2005-09-21 09:10:20 51°30.185 2°24.274 45.2 11 38 36.8
2005-09-21 09:11:20 51°30.338 2°24.438 40 11.2 34 38.9
2005-09-21 09:12:20 51°30.493 2°24.6 39.9 11.1 33 38.7
2005-09-21 09:13:21 51°30.65 2°24.762 40.8 11 34 38.3
2005-09-21 09:14:21 51°30.802 2°24.923 40.6 10.9 33 37.3
2005-09-21 09:15:20 51°30.95 2°25.082 39.9 11 34 38.3
2005-09-21 09:16:20 51°31.103 2°25.244 40.6 10.9 34 39.9
2005-09-21 09:17:20 51°31.254 2°25.402 38.9 11 32 39
2005-09-21 09:18:19 51°31.409 2°25.554 38 11.1 32 36.2
2005-09-21 09:19:19 51°31.565 2°25.709 38.8 11 32 40.1
2005-09-21 09:20:20 51°31.724 2°25.867 38.3 11.2 33 40.2
2005-09-21 09:21:19 51°31.879 2°26.025 38.8 11.2 33 39.4
2005-09-21 09:22:21 51°32.04 2°26.183 37.8 11 31 39.3
2005-09-21 09:23:20 51°32.195 2°26.335 37.6 11.1 32 38.8
2005-09-21 09:24:20 51°32.356 2°26.49 37.6 11.2 31 35
2005-09-21 09:25:20 51°32.513 2°26.643 38.2 11.1 31 37.6
2005-09-21 09:26:21 51°32.673 2°26.799 38.1 11.1 31 37.2
2005-09-21 09:27:20 51°32.831 2°26.954 38.5 11.2 31 37.7
2005-09-21 09:28:20 51°32.99 2°27.11 38.3 11.3 32 36.3
2005-09-21 09:29:20 51°33.147 2°27.271 39.2 11.2 33 36.9
2005-09-21 09:30:21 51°33.304 2°27.436 40 11.1 34 36.6
2005-09-21 09:31:21 51°33.461 2°27.598 39.4 11.2 33 37
2005-09-21 09:32:20 51°33.618 2°27.755 37.7 11.2 31 34.2
2005-09-21 09:33:20 51°33.779 2°27.906 37.2 11.2 31 34.3
2005-09-21 09:34:21 51°33.941 2°28.057 37.5 11.2 31 33.8
2005-09-21 09:35:20 51°34.102 2°28.209 37.2 11.2 30 35.5
2005-09-21 09:36:20 51°34.262 2°28.363 37.9 11.2 31 33.3
2005-09-21 09:37:20 51°34.421 2°28.516 37.6 11.2 32 34.8
2005-09-21 09:38:21 51°34.584 2°28.671 37 11.2 31 37
2005-09-21 09:39:19 51°34.739 2°28.824 37.7 11.1 32 35.3
2005-09-21 09:40:21 51°34.897 2°28.994 39.1 11.2 33 34
2005-09-21 09:41:19 51°35.048 2°29.157 40.1 11.1 35 32.9
2005-09-21 09:42:19 51°35.202 2°29.319 38.4 11 32 33.7
2005-09-21 09:43:20 51°35.356 2°29.477 37.9 11 32 31.3
2005-09-21 09:44:20 51°35.508 2°29.635 38.2 10.9 33 36.1
2005-09-21 09:45:20 51°35.663 2°29.798 38.5 10.9 34 36.1
2005-09-21 09:46:20 51°35.814 2°29.958 38.6 11 33 34
2005-09-21 09:47:21 51°35.969 2°30.122 38.3 10.9 34 34.3
2005-09-21 09:48:20 51°36.116 2°30.279 38.3 10.9 34 35.7
2005-09-21 09:49:20 51°36.267 2°30.438 37.8 10.8 33 36.1
2005-09-21 09:50:20 51°36.418 2°30.6 38.3 10.8 34 36
2005-09-21 09:51:20 51°36.569 2°30.763 38.2 10.9 33 35.6
2005-09-21 09:52:20 51°36.72 2°30.927 38 10.9 34 36.5
2005-09-21 09:53:20 51°36.871 2°31.083 35.6 10.9 31 37.9
2005-09-21 09:54:20 51°37.028 2°31.234 35.4 10.9 31 38.4
2005-09-21 09:55:21 51°37.186 2°31.385 35.2 10.9 31 38.9
2005-09-21 09:56:20 51°37.338 2°31.533 35.3 10.9 31 38.7
2005-09-21 09:57:20 51°37.497 2°31.687 35.4 11.1 32 39.9
2005-09-21 09:58:21 51°37.655 2°31.84 35.2 11 31 38.5
2005-09-21 09:59:20 51°37.811 2°31.988 34.7 11 31 38.4
2005-09-21 10:00:20 51°37.965 2°32.141 35.8 11 32 40.5
2005-09-21 10:01:21 51°38.125 2°32.297 34.6 11.1 31 40.1
2005-09-21 10:02:20 51°38.281 2°32.447 35.3 11.1 31 40.8
2005-09-21 10:03:21 51°38.441 2°32.604 34.9 11.1 31 42
2005-09-21 10:04:20 51°38.597 2°32.757 35.2 11.2 33 42.7
2005-09-21 10:05:20 51°38.756 2°32.915 36.1 11.3 31 42.9
2005-09-21 10:06:21 51°38.918 2°33.074 35.2 11.2 32 39.8
2005-09-21 10:07:20 51°39.078 2°33.229 34.5 11.2 31 41.3
2005-09-21 10:08:20 51°39.234 2°33.397 37.9 11.3 34 40.9
2005-09-21 10:09:21 51°39.393 2°33.564 36.4 11.3 33 40.5
2005-09-21 10:10:21 51°39.555 2°33.722 35.2 11.4 31 41.8
2005-09-21 10:11:20 51°39.716 2°33.878 34.7 11.4 30 42.1
2005-09-21 10:12:20 51°39.879 2°34.034 35.8 11.6 31 41.3
2005-09-21 10:13:20 51°40.042 2°34.191 35.2 11.5 31 38.3
2005-09-21 10:14:21 51°40.209 2°34.35 34.9 11.4 30 38.2
2005-09-21 10:15:20 51°40.365 2°34.509 37.2 11.2 33 37.1
2005-09-21 10:16:20 51°40.524 2°34.676 38.2 11.3 34 38.2
2005-09-21 10:17:20 51°40.683 2°34.84 36.4 11.3 34 33.9
2005-09-21 10:18:20 51°40.842 2°35.003 37.6 11.4 32 35.1
2005-09-21 10:19:20 51°41.001 2°35.169 37.5 11.4 32 34.6
2005-09-21 10:20:21 51°41.139 2°35.381 58 11.3 60 33.1
2005-09-21 10:21:20 51°41.195 2°35.67 80.5 11.8 84 31.6
2005-09-21 10:22:21 51°41.184 2°35.988 95.1 12.1 106 25.7
2005-09-21 10:23:20 51°41.065 2°36.261 121.2 12.7 128 22.7
2005-09-21 10:24:20 51°40.95 2°36.54 114.4 12.6 121 26
2005-09-21 10:25:21 51°40.84 2°36.839 114.4 12.8 120 32.8
2005-09-21 10:26:21 51°40.73 2°37.138 113.9 13 121 35.8
2005-09-21 10:27:20 51°40.622 2°37.432 113.2 12.9 120 38.2
2005-09-21 10:28:21 51°40.511 2°37.737 113.1 13 121 40.6
2005-09-21 10:29:20 51°40.406 2°38.036 113.1 12.8 118 42.3
2005-09-21 10:30:20 51°40.301 2°38.339 114.3 13 120 40.9
2005-09-21 10:31:20 51°40.195 2°38.64 113.1 12.8 120 39.4
2005-09-21 10:32:20 51°40.09 2°38.939 113.2 12.8 120 40.2
2005-09-21 10:33:20 51°39.988 2°39.238 112.6 12.8 118 41.7
2005-09-21 10:34:20 51°39.886 2°39.535 112.5 12.7 117 41.4
2005-09-21 10:35:20 51°39.784 2°39.834 114.2 12.7 120 35.4
2005-09-21 10:36:20 51°39.681 2°40.126 113.2 12.6 119 33.1
2005-09-21 10:37:20 51°39.583 2°40.428 113.4 12.7 118 36.6
2005-09-21 10:38:21 51°39.48 2°40.733 113.7 12.7 117 37
2005-09-21 10:39:20 51°39.371 2°41.023 122.8 13 130 32
2005-09-21 10:40:20 51°39.231 2°41.287 124.8 12.9 130 21.9
2005-09-21 10:41:20 51°39.091 2°41.541 124.2 12.8 129 22.8
2005-09-21 10:42:21 51°38.911 2°41.734 162.5 13.8 165 22.3
2005-09-21 10:43:21 51°38.672 2°41.767 172.3 14.4 176 21.7
2005-09-21 10:44:21 51°38.431 2°41.796 172.6 14.6 176 25.2
2005-09-21 10:45:20 51°38.191 2°41.824 173.3 14.6 177 25.4
2005-09-21 10:46:20 51°37.949 2°41.853 173.1 14.7 176 28.3
2005-09-21 10:47:20 51°37.704 2°41.877 172.9 14.7 176 30.2
2005-09-21 10:48:20 51°37.472 2°41.783 218.4 14.9 218 30.1
2005-09-21 10:49:20 51°37.359 2°41.435 263.3 14.9 255 16.6
2005-09-21 10:50:20 51°37.327 2°41.034 273.9 14.9 267 20.6
2005-09-21 10:51:20 51°37.332 2°40.645 282.4 14.6 272 21.4
2005-09-21 10:52:21 51°37.342 2°40.251 282.3 14.5 272 27.5
2005-09-21 10:53:20 51°37.351 2°39.874 282.2 14.2 273 33.8
2005-09-21 10:54:20 51°37.358 2°39.489 282.2 14.3 271 37.2
2005-09-21 10:55:21 51°37.365 2°39.103 282.6 14.3 271 42.1
2005-09-21 10:56:20 51°37.371 2°38.724 282.2 14.3 271 40.2
2005-09-21 10:57:20 51°37.383 2°38.346 285.9 14.2 275 38.9
2005-09-21 10:58:21 51°37.4 2°37.962 285.9 14.2 275 37.9
2005-09-21 10:59:20 51°37.417 2°37.584 285.2 14.2 274 39.6
2005-09-21 11:00:20 51°37.435 2°37.206 285 14.2 274 39.5
2005-09-21 11:01:21 51°37.452 2°36.828 285.2 14.2 274 40.1
2005-09-21 11:02:20 51°37.468 2°36.457 285.3 14.2 274 39.4
2005-09-21 11:03:21 51°37.484 2°36.067 285.5 14.3 273 38.9
2005-09-21 11:04:19 51°37.498 2°35.697 285.2 14.3 273 37.3
2005-09-21 11:05:21 51°37.512 2°35.307 286.3 14.3 274 35.2
2005-09-21 11:06:21 51°37.521 2°34.92 282.6 14.5 272 27.9
2005-09-21 11:07:21 51°37.531 2°34.53 283 14.7 272 17.7
2005-09-21 11:08:20 51°37.483 2°34.144 261.7 15.1 255 27.7
2005-09-21 11:09:21 51°37.346 2°33.828 217.9 14.7 214 32.5
2005-09-21 11:10:21 51°37.133 2°33.623 210.9 14.9 210 34.4
2005-09-21 11:11:21 51°36.919 2°33.42 211.2 14.9 210 35
2005-09-21 11:12:20 51°36.709 2°33.22 211.8 14.7 209 36.4
2005-09-21 11:13:21 51°36.467 2°33.131 188.9 14.7 189 36
2005-09-21 11:14:20 51°36.228 2°33.058 189.5 14.7 191 37
2005-09-21 11:15:20 51°35.988 2°32.982 190.5 14.8 192 36.1
2005-09-21 11:16:21 51°35.745 2°32.905 190.4 14.7 192 37.3
2005-09-21 11:17:20 51°35.508 2°32.828 190.2 14.7 192 36.9
2005-09-21 11:18:20 51°35.268 2°32.751 190.3 14.6 191 36
2005-09-21 11:19:20 51°35.029 2°32.672 190.1 14.7 191 33.8
2005-09-21 11:20:21 51°34.786 2°32.595 190.1 14.6 191 31.3
2005-09-21 11:21:20 51°34.55 2°32.517 190.5 14.6 192 28.6
2005-09-21 11:22:19 51°34.316 2°32.44 189.3 14.6 191 25.2
2005-09-21 11:23:21 51°34.072 2°32.357 189.9 14.7 191 25.6
2005-09-21 11:24:19 51°33.84 2°32.279 190.5 14.6 192 28.6
2005-09-21 11:25:21 51°33.596 2°32.202 189.2 14.6 192 28.1
2005-09-21 11:26:19 51°33.365 2°32.127 189.9 14.4 191 28.7
2005-09-21 11:27:20 51°33.124 2°32.05 190.2 14.5 191 29.7
2005-09-21 11:28:19 51°32.886 2°31.977 190.6 14.9 192 27.7
2005-09-21 11:29:19 51°32.643 2°31.935 179.7 14.7 182 27.2
2005-09-21 11:30:20 51°32.393 2°31.927 177.8 15 181 30.2
2005-09-21 11:31:19 51°32.15 2°31.922 178.3 14.6 180 31.8
2005-09-21 11:32:19 51°31.908 2°31.916 179.4 14.6 182 34.1
2005-09-21 11:33:20 51°31.666 2°31.959 168.3 14.3 172 35.2
2005-09-21 11:34:20 51°31.428 2°32.012 168.7 14.4 172 36.5
2005-09-21 11:35:19 51°31.2 2°32.079 158.7 14 161 36
2005-09-21 11:36:21 51°30.981 2°32.232 149.2 13.9 153 35.4
2005-09-21 11:37:20 51°30.778 2°32.394 148.6 13.8 153 34.9
2005-09-21 11:38:19 51°30.575 2°32.558 149.4 13.8 153 31.9
2005-09-21 11:39:21 51°30.363 2°32.725 149.5 13.9 155 27.4
2005-09-21 11:40:19 51°30.163 2°32.884 150.2 13.9 154 23.7
2005-09-21 11:41:19 51°29.966 2°33.062 144.7 13.5 148 23.7
2005-09-21 11:42:20 51°29.784 2°33.283 138.2 13.4 141 20.6
2005-09-21 11:43:19 51°29.695 2°33.572 99.3 12.2 102 17.2
2005-09-21 11:44:20 51°29.661 2°33.897 94.4 12.4 100 22.4
2005-09-21 11:45:19 51°29.624 2°34.22 94.2 12.5 99 36.2
2005-09-21 11:46:19 51°29.592 2°34.548 95.3 12.5 99 38.8
2005-09-21 11:47:19 51°29.561 2°34.878 94.3 12.6 98 39.5
2005-09-21 11:48:19 51°29.53 2°35.212 95.4 12.6 98 40.2
2005-09-21 11:49:21 51°29.495 2°35.557 94.5 12.8 98 35.6
2005-09-21 11:50:19 51°29.467 2°35.886 94.6 12.8 97 36.2
2005-09-21 11:51:19 51°29.437 2°36.222 95.9 12.7 98 32.3
2005-09-21 11:52:21 51°29.404 2°36.565 96.5 12.6 100 29.2
2005-09-21 11:53:20 51°29.319 2°36.878 111.4 13 116 26.3
2005-09-21 11:54:21 51°29.228 2°37.197 110 13 115 33.8
2005-09-21 11:55:20 51°29.135 2°37.507 109.3 13 115 37.3
2005-09-21 11:56:20 51°29.032 2°37.812 120.7 13.2 129 37.9
2005-09-21 11:57:20 51°28.822 2°37.948 160.5 14 162 37.6
2005-09-21 11:58:20 51°28.595 2°38.052 160.3 14.2 163 36.1
2005-09-21 11:59:21 51°28.372 2°38.178 154.4 14.1 158 38.2
2005-09-21 12:00:20 51°28.159 2°38.32 154.1 14 157 37.4
2005-09-21 12:01:21 51°27.939 2°38.453 157.2 14.1 159 33.7
2005-09-21 12:02:19 51°27.725 2°38.58 156.8 14.2 159 33.4
2005-09-21 12:03:19 51°27.505 2°38.712 157 14.2 160 33.6
2005-09-21 12:04:19 51°27.281 2°38.83 159.5 14.2 162 35.1
2005-09-21 12:05:19 51°27.056 2°38.942 160.2 14.1 163 35.3
2005-09-21 12:06:19 51°26.832 2°39.055 160.3 14.2 162 34.1
2005-09-21 12:07:19 51°26.607 2°39.171 160.1 14.1 162 33.5
2005-09-21 12:08:21 51°26.379 2°39.288 159.8 14 162 38.1
2005-09-21 12:09:20 51°26.161 2°39.401 160.3 14 162 38.8
2005-09-21 12:10:21 51°25.942 2°39.506 159.8 13.5 163 35.3
2005-09-21 12:11:19 51°25.732 2°39.606 159.6 13.5 163 32
2005-09-21 12:12:21 51°25.511 2°39.712 160.5 13.6 163 31.3
2005-09-21 12:13:21 51°25.295 2°39.82 160.3 13.7 163 29.9
2005-09-21 12:14:20 51°25.08 2°39.93 160 13.8 162 29.2
2005-09-21 12:15:21 51°24.861 2°40.041 162.5 13.8 164 28.4
2005-09-21 12:16:19 51°24.645 2°40.137 163.2 13.8 164 27.5
2005-09-21 12:17:19 51°24.423 2°40.224 172.4 13.8 170 26.2
2005-09-21 12:18:20 51°24.19 2°40.282 171.4 13.9 171 27.1
2005-09-21 12:19:20 51°23.962 2°40.343 171.4 13.9 171 26.9
2005-09-21 12:20:19 51°23.737 2°40.408 170.5 13.8 170 30.4
2005-09-21 12:21:21 51°23.503 2°40.472 173.9 14 173 30.6
2005-09-21 12:22:21 51°23.273 2°40.511 176.1 13.9 174 31.3
2005-09-21 12:23:20 51°23.046 2°40.553 175.1 13.8 174 31.2
2005-09-21 12:24:21 51°22.818 2°40.575 175.3 13.6 176 31
2005-09-21 12:25:19 51°22.598 2°40.588 180.4 13.6 179 30.8
2005-09-21 12:26:21 51°22.365 2°40.589 179.2 13.7 180 31.3
2005-09-21 12:27:20 51°22.145 2°40.655 168 13.6 168 30.2
2005-09-21 12:28:19 51°21.927 2°40.73 168.5 13.7 168 28.8
2005-09-21 12:29:19 51°21.709 2°40.829 160.4 13.7 158 26.8
2005-09-21 12:30:19 51°21.499 2°40.963 159.9 13.6 158 28
2005-09-21 12:31:21 51°21.284 2°41.105 159.4 13.6 157 26.5
2005-09-21 12:32:19 51°21.087 2°41.264 149.5 13.6 146 26.2
2005-09-21 12:33:19 51°20.898 2°41.471 148.3 13.6 145 27.2
2005-09-21 12:34:21 51°20.72 2°41.711 139.3 13.7 139 24.8
2005-09-21 12:35:19 51°20.615 2°42.021 117.3 13.8 114 22.4
2005-09-21 12:36:20 51°20.503 2°42.352 121.9 13.9 119 22.6
2005-09-21 12:37:19 51°20.39 2°42.666 122.6 13.8 120 23.1
2005-09-21 12:38:20 51°20.277 2°42.989 121 13.6 119 27.6
2005-09-21 12:39:21 51°20.166 2°43.303 121.4 13.4 119 28.3
2005-09-21 12:40:20 51°20.054 2°43.609 122.6 13.4 120 28.4
2005-09-21 12:41:19 51°19.951 2°43.916 119.5 13.3 117 28.5
2005-09-21 12:42:21 51°19.848 2°44.241 119.7 13.4 117 26.1
2005-09-21 12:43:20 51°19.748 2°44.559 120.4 13.5 116 24.8
2005-09-21 12:44:19 51°19.664 2°44.886 116.7 13.6 113 23.7
2005-09-21 12:45:21 51°19.57 2°45.227 117.6 13.6 114 17.6
2005-09-21 12:46:21 51°19.473 2°45.566 118.2 14.2 114 13.9
2005-09-21 12:47:20 51°19.377 2°45.904 117.6 14.1 114 19.1
2005-09-21 12:48:21 51°19.28 2°46.24 118.3 14 114 21.9
2005-09-21 12:49:20 51°19.185 2°46.563 118 13.6 115 23.8
2005-09-21 12:50:21 51°19.086 2°46.897 118.3 13.6 115 23.4
2005-09-21 12:51:20 51°18.99 2°47.223 119.1 13.7 117 22.4
2005-09-21 12:52:21 51°18.889 2°47.552 118.1 13.7 115 21.1
2005-09-21 12:53:20 51°18.795 2°47.879 117.6 13.7 114 18.1
2005-09-21 12:54:19 51°18.701 2°48.205 118.3 13.7 115 16.5
2005-09-21 12:55:21 51°18.602 2°48.547 117.9 13.9 114 14.2
2005-09-21 12:56:20 51°18.509 2°48.882 117.9 14 114 12.2
2005-09-21 12:57:21 51°18.412 2°49.225 118.5 14.1 113 13
2005-09-21 12:58:21 51°18.317 2°49.565 118.2 14 114 15.3
2005-09-21 12:59:19 51°18.224 2°49.894 118 13.8 115 16.5
2005-09-21 13:00:20 51°18.125 2°50.232 118.8 13.8 115 16.4
2005-09-21 13:01:21 51°18.029 2°50.567 118.6 13.7 115 15.6
2005-09-21 13:02:21 51°17.935 2°50.9 118.3 13.8 114 14.8
2005-09-21 13:03:21 51°17.833 2°51.227 121.8 13.7 118 13.3
2005-09-21 13:04:19 51°17.724 2°51.534 125.8 13.7 122 12.5
2005-09-21 13:05:20 51°17.592 2°51.842 130.8 13.7 126 13.1
2005-09-21 13:06:21 51°17.421 2°52.073 151.4 13.4 146 13.2
2005-09-21 13:07:20 51°17.239 2°52.277 151.5 13.5 146 13
2005-09-21 13:08:21 51°17.056 2°52.489 149.5 13.5 143 12.5
2005-09-21 13:09:20 51°16.865 2°52.656 162.7 13.2 156 12.5
2005-09-21 13:10:21 51°16.662 2°52.81 162.3 13.4 156 13.8
2005-09-21 13:11:20 51°16.461 2°52.945 165.8 13.2 158 14.7
2005-09-21 13:12:19 51°16.262 2°53.074 165.8 13.1 158 14.9
2005-09-21 13:13:21 51°16.055 2°53.21 165.9 13.1 158 14.8
2005-09-21 13:14:21 51°15.853 2°53.345 165.4 13.1 158 14.4
2005-09-21 13:15:19 51°15.654 2°53.459 167.6 13.1 160 13.9
2005-09-21 13:16:21 51°15.452 2°53.577 168 11.7 160 13.5
2005-09-21 13:17:19 51°15.319 2°53.68 164.7 11.1 157 13.1
2005-09-21 13:18:21 51°15.12 2°53.79 168.3 12.7 161 12.4
2005-09-21 13:19:19 51°14.943 2°53.957 145 13.1 135 12.1
2005-09-21 13:20:19 51°14.788 2°54.206 144.8 13.3 136 12.8
2005-09-21 13:21:21 51°14.637 2°54.479 139.4 13.4 130 13.1
2005-09-21 13:22:19 51°14.501 2°54.749 138.6 13.5 128 13.6
2005-09-21 13:23:21 51°14.369 2°55.053 134.9 13.6 123 13.7
2005-09-21 13:24:20 51°14.265 2°55.238 133.5 8.4 129 13.9
2005-09-21 13:25:21 51°14.165 2°55.401 146.1 8.5 139 -999
2005-09-21 13:26:20 51°14.04 2°55.506 158.4 8.7 157 13.8
2005-09-21 13:27:20 51°13.919 2°55.577 163.6 7.2 161 13.3
2005-09-21 13:28:22 51°13.812 2°55.645 155.8 6.5 153 -999
2005-09-21 13:29:22 51°13.731 2°55.738 138 5.6 137 -999
2005-09-21 13:30:22 51°13.678 2°55.844 127.7 4.7 125 -999
2005-09-21 13:31:22 51°13.641 2°55.941 119.7 3.9 118 -999
2005-09-21 13:32:22 51°13.617 2°56.023 114.6 3 112 -999
2005-09-21 13:33:22 51°13.604 2°56.082 115.1 1.4 110 -999
2005-09-21 13:34:22 51°13.599 2°56.094 126.9 0.4 128 -999
2005-09-21 13:35:22 51°13.599 2°56.099 120 0.2 291 -999
2005-09-21 13:36:22 51°13.599 2°56.099 118.9 0.3 126 -999